Terminal Aerodrome Forecast
Issued by NWS Tallahassee, FL

Current Version | Previous Version | Text Only | Print | Product List | Glossary On
Versions: 1 2 3 4 5 6 7 8 9 10 11 12 13 14 15 16 17 18
000
FTUS42 KTAE 012320
TAFTLH
TAF
KTLH 012320Z 0200/0224 09005KT P6SM VCSH BKN060
     FM020200 10003KT P6SM SCT050 BKN100
     FM021400 14004KT P6SM VCSH BKN050
     FM021800 20008KT P6SM SCT050 BKN150 PROB30 0218/0224 TSRA
      BKN040CB=

USA.gov is the U.S. government's official web portal to all federal, state and local government web resources and services.